createdAt,value
2018-04-25T00:02:18.867Z,64.36
2018-04-25T00:04:48.082Z,63.95
2018-04-25T00:07:17.424Z,64.30
2018-04-25T00:09:45.903Z,64.91
2018-04-25T00:12:14.967Z,63.97
2018-04-25T00:14:43.342Z,63.83
2018-04-25T00:17:11.786Z,63.37
2018-04-25T00:19:40.159Z,62.83
2018-04-25T00:22:08.570Z,62.37
2018-04-25T00:24:37.705Z,62.53
2018-04-25T00:27:06.112Z,62.29
2018-04-25T00:29:35.150Z,62.12
2018-04-25T00:32:03.522Z,62.29
2018-04-25T00:34:32.678Z,61.89
2018-04-25T00:37:01.112Z,61.94
2018-04-25T00:39:29.478Z,61.57
2018-04-25T00:41:58.638Z,61.61
2018-04-25T00:44:27.788Z,61.63
2018-04-25T00:46:56.437Z,61.58
2018-04-25T00:49:25.687Z,61.32
2018-04-25T00:51:54.166Z,61.41
2018-04-25T00:54:23.466Z,61.30
2018-04-25T00:56:53.460Z,61.23
2018-04-25T00:59:21.899Z,61.26
2018-04-25T01:01:50.348Z,61.24
2018-04-25T01:04:19.041Z,61.16
2018-04-25T01:06:47.409Z,61.10
2018-04-25T01:09:15.882Z,61.35
2018-04-25T01:11:44.359Z,61.27
2018-04-25T01:14:12.680Z,61.18
2018-04-25T01:16:41.039Z,61.31
2018-04-25T01:19:09.360Z,61.39
2018-04-25T01:21:38.550Z,61.64
2018-04-25T01:24:06.913Z,61.56
2018-04-25T01:26:35.329Z,61.95
2018-04-25T01:29:07.843Z,61.68
2018-04-25T01:31:57.291Z,61.79
2018-04-25T01:34:30.151Z,61.98
2018-04-25T01:37:04.640Z,62.01
2018-04-25T01:39:39.246Z,62.20
2018-04-25T01:42:23.133Z,62.14
2018-04-25T01:44:58.318Z,62.11
2018-04-25T01:50:42.020Z,62.13
2018-04-25T01:53:28.070Z,62.17
2018-04-25T01:56:14.335Z,62.04
2018-04-25T01:59:01.307Z,61.93
2018-04-25T02:01:28.889Z,62.14
2018-04-25T02:03:59.860Z,62.25
2018-04-25T02:06:28.242Z,62.11
2018-04-25T02:08:56.654Z,61.94
2018-04-25T02:11:25.018Z,62.25
2018-04-25T02:13:53.435Z,62.30
2018-04-25T02:16:21.819Z,62.26
2018-04-25T02:18:50.195Z,62.18
2018-04-25T02:21:18.554Z,62.35
2018-04-25T02:23:46.952Z,62.03
2018-04-25T02:26:15.379Z,61.82
2018-04-25T02:28:43.761Z,61.73
2018-04-25T02:31:12.172Z,61.96
2018-04-25T02:33:40.548Z,62.18
2018-04-25T02:36:08.923Z,62.34
2018-04-25T02:38:37.266Z,62.33
2018-04-25T02:41:06.435Z,62.43
2018-04-25T02:43:35.545Z,62.23
2018-04-25T02:46:04.750Z,62.06
2018-04-25T02:48:34.010Z,62.21
2018-04-25T02:51:02.495Z,61.80
2018-04-25T02:53:31.294Z,61.92
2018-04-25T02:55:59.647Z,61.68
2018-04-25T02:58:28.008Z,61.78
2018-04-25T03:00:56.422Z,61.62
2018-04-25T03:03:24.805Z,61.56
2018-04-25T03:05:54.093Z,61.37
2018-04-25T03:08:22.480Z,61.59
2018-04-25T03:10:51.092Z,61.55
2018-04-25T03:13:19.437Z,61.89
2018-04-25T03:15:47.868Z,61.79
2018-04-25T03:18:16.257Z,61.69
2018-04-25T03:20:44.629Z,61.62
2018-04-25T03:23:13.008Z,61.49
2018-04-25T03:25:41.666Z,61.37
2018-04-25T03:28:10.840Z,61.29
2018-04-25T03:30:39.840Z,61.11
2018-04-25T03:33:09.331Z,61.17
2018-04-25T03:35:37.672Z,61.10
2018-04-25T03:38:06.099Z,60.85
2018-04-25T03:40:34.451Z,61.06
2018-04-25T03:43:02.810Z,60.98
2018-04-25T03:45:31.252Z,61.14
2018-04-25T03:48:01.172Z,60.97
2018-04-25T03:50:30.372Z,61.15
2018-04-25T03:52:58.773Z,61.06
2018-04-25T03:55:27.106Z,61.69
2018-04-25T03:57:55.488Z,61.49
2018-04-25T04:00:23.841Z,62.44
2018-04-25T04:02:52.246Z,60.95
2018-04-25T04:05:20.701Z,60.97
2018-04-25T04:07:49.122Z,60.59
2018-04-25T04:10:18.799Z,60.93
2018-04-25T04:12:47.209Z,60.99
2018-04-25T04:15:15.558Z,60.41
2018-04-25T04:17:43.926Z,60.40
2018-04-25T04:20:12.336Z,60.39
2018-04-25T04:22:40.750Z,60.17
2018-04-25T04:25:09.104Z,60.44
2018-04-25T04:27:38.299Z,60.01
2018-04-25T04:30:07.467Z,60.17
2018-04-25T04:32:35.802Z,60.10
2018-04-25T04:35:05.381Z,60.00
2018-04-25T04:37:33.755Z,59.72
2018-04-25T04:40:03.426Z,59.73
2018-04-25T04:42:32.152Z,59.40
2018-04-25T04:45:00.629Z,59.29
2018-04-25T04:47:29.902Z,58.96
2018-04-25T04:49:58.268Z,59.06
2018-04-25T04:52:26.730Z,58.91
2018-04-25T04:54:55.095Z,58.86
2018-04-25T04:57:24.238Z,58.68
2018-04-25T04:59:52.590Z,58.51
2018-04-25T05:02:21.787Z,58.17
2018-04-25T05:04:50.150Z,58.01
2018-04-25T05:07:18.549Z,57.51
2018-04-25T05:09:48.247Z,57.39
2018-04-25T05:12:16.629Z,57.56
2018-04-25T05:14:46.390Z,57.49
2018-04-25T05:17:14.759Z,57.30
2018-04-25T05:19:43.194Z,57.27
2018-04-25T05:22:11.539Z,57.30
2018-04-25T05:24:41.517Z,57.14
2018-04-25T05:27:10.580Z,56.97
2018-04-25T05:29:38.926Z,57.07
2018-04-25T05:32:07.366Z,56.99
2018-04-25T05:34:35.818Z,56.89
2018-04-25T05:37:05.064Z,56.81
2018-04-25T05:39:33.420Z,57.23
2018-04-25T05:42:01.802Z,57.32
2018-04-25T05:44:31.305Z,57.65
2018-04-25T05:46:59.654Z,56.80
2018-04-25T05:49:28.752Z,56.38
2018-04-25T05:51:57.092Z,56.07
2018-04-25T05:54:25.487Z,56.40
2018-04-25T05:56:54.947Z,56.58
2018-04-25T05:59:24.680Z,56.40
2018-04-25T06:01:53.049Z,56.45
2018-04-25T06:04:21.558Z,56.11
2018-04-25T06:06:50.714Z,56.07
2018-04-25T06:09:19.098Z,56.10
2018-04-25T06:11:48.342Z,56.25
2018-04-25T06:14:17.446Z,56.16
2018-04-25T06:16:46.579Z,56.15
2018-04-25T06:19:14.988Z,56.23
2018-04-25T06:21:43.426Z,56.13
2018-04-25T06:24:11.803Z,55.75
2018-04-25T06:26:40.134Z,55.75
2018-04-25T06:29:09.306Z,55.74
2018-04-25T06:31:37.627Z,55.35
2018-04-25T06:34:07.244Z,55.54
2018-04-25T06:36:36.325Z,55.61
2018-04-25T06:39:04.759Z,55.61
2018-04-25T06:41:33.115Z,55.67
2018-04-25T06:44:03.353Z,55.81
2018-04-25T06:46:31.945Z,56.01
2018-04-25T06:49:01.539Z,56.04
2018-04-25T06:51:30.636Z,55.91
2018-04-25T06:53:59.306Z,56.19
2018-04-25T06:56:27.753Z,55.64
2018-04-25T06:58:58.416Z,55.52
2018-04-25T07:01:26.767Z,55.36
2018-04-25T07:03:56.655Z,55.11
2018-04-25T07:06:25.005Z,54.05
2018-04-25T07:08:53.481Z,53.63
2018-04-25T07:11:21.962Z,53.69
2018-04-25T07:13:50.988Z,53.81
2018-04-25T07:16:20.279Z,53.88
2018-04-25T07:18:48.698Z,53.68
2018-04-25T07:21:18.276Z,53.58
2018-04-25T07:23:46.675Z,53.74
2018-04-25T07:26:15.040Z,54.12
2018-04-25T07:28:43.454Z,55.02
2018-04-25T07:31:12.689Z,59.08
2018-04-25T07:33:41.975Z,60.45
2018-04-25T07:36:10.335Z,62.34
2018-04-25T07:38:39.448Z,64.25
2018-04-25T07:41:09.598Z,65.01
2018-04-25T07:43:38.494Z,65.11
2018-04-25T07:46:07.275Z,64.87
2018-04-25T07:48:35.696Z,65.00
2018-04-25T07:51:05.226Z,64.76
2018-04-25T07:53:34.491Z,64.86
2018-04-25T07:56:02.880Z,64.56
2018-04-25T07:58:32.071Z,63.81
2018-04-25T08:01:00.465Z,63.72
2018-04-25T08:03:29.677Z,63.80
2018-04-25T08:05:58.083Z,63.99
2018-04-25T08:08:27.218Z,64.22
2018-04-25T08:10:55.855Z,63.40
2018-04-25T08:17:07.379Z,62.02
2018-04-25T08:19:53.676Z,61.56
2018-04-25T08:22:22.021Z,60.17
2018-04-25T08:24:50.385Z,59.69
2018-04-25T08:27:19.518Z,59.78
2018-04-25T08:29:47.921Z,59.56
2018-04-25T08:32:16.412Z,59.18
2018-04-25T08:34:44.774Z,58.20
2018-04-25T08:37:13.136Z,58.24
2018-04-25T08:39:41.528Z,57.52
2018-04-25T08:42:09.913Z,57.55
2018-04-25T08:44:38.407Z,56.81
2018-04-25T08:47:07.302Z,56.97
2018-04-25T08:49:36.358Z,57.63
2018-04-25T08:52:04.883Z,56.84
2018-04-25T08:54:33.351Z,55.84
2018-04-25T08:57:03.716Z,55.24
2018-04-25T08:59:33.733Z,55.30
2018-04-25T09:02:03.520Z,54.54
2018-04-25T09:04:32.656Z,54.03
2018-04-25T09:07:01.025Z,54.36
2018-04-25T09:09:30.263Z,53.66
2018-04-25T09:11:58.595Z,53.79
2018-04-25T09:14:27.696Z,53.22
2018-04-25T09:16:57.644Z,54.16
2018-04-25T09:19:26.079Z,55.49
2018-04-25T09:21:55.244Z,57.27
2018-04-25T09:24:23.757Z,58.54
2018-04-25T09:26:52.898Z,59.83
2018-04-25T09:29:21.277Z,60.86
2018-04-25T09:31:49.662Z,61.07
2018-04-25T09:34:18.018Z,61.52
2018-04-25T09:36:47.221Z,61.56
2018-04-25T09:39:15.589Z,61.44
2018-04-25T09:41:44.870Z,61.07
2018-04-25T09:44:13.990Z,60.84
2018-04-25T09:46:42.621Z,59.97
2018-04-25T09:49:10.998Z,58.89
2018-04-25T09:51:39.646Z,58.11
2018-04-25T09:54:08.578Z,56.36
2018-04-25T09:56:36.956Z,56.07
2018-04-25T09:59:05.339Z,56.24
2018-04-25T10:01:33.706Z,54.52
2018-04-25T10:04:02.629Z,53.82
2018-04-25T10:06:31.033Z,52.47
2018-04-25T10:08:59.689Z,51.72
2018-04-25T10:11:28.039Z,51.01
2018-04-25T10:13:57.350Z,51.05
2018-04-25T10:16:25.775Z,50.78
2018-04-25T10:18:54.123Z,50.13
2018-04-25T10:21:22.454Z,49.95
2018-04-25T10:23:51.527Z,49.73
2018-04-25T10:26:20.798Z,49.63
2018-04-25T10:28:49.429Z,49.42
2018-04-25T10:31:17.771Z,49.02
2018-04-25T10:33:46.899Z,48.29
2018-04-25T10:36:16.283Z,49.04
2018-04-25T10:38:45.442Z,48.27
2018-04-25T10:41:13.842Z,47.91
2018-04-25T10:43:42.513Z,48.10
2018-04-25T10:46:10.877Z,48.06
2018-04-25T10:48:39.249Z,47.97
2018-04-25T10:51:08.705Z,47.31
2018-04-25T10:53:37.843Z,47.08
2018-04-25T10:56:06.244Z,47.37
2018-04-25T10:58:35.105Z,47.29
2018-04-25T11:01:03.454Z,47.96
2018-04-25T11:03:32.998Z,48.26
2018-04-25T11:06:01.349Z,48.30
2018-04-25T11:08:29.699Z,48.43
2018-04-25T11:10:58.831Z,48.13
2018-04-25T11:13:27.195Z,48.60
2018-04-25T11:15:56.496Z,49.01
2018-04-25T11:18:24.845Z,49.50
2018-04-25T11:20:53.241Z,49.06
2018-04-25T11:23:22.399Z,49.75
2018-04-25T11:25:50.883Z,49.28
2018-04-25T11:28:19.249Z,49.36
2018-04-25T11:30:47.984Z,49.75
2018-04-25T11:33:17.141Z,50.36
2018-04-25T11:35:45.853Z,51.13
2018-04-25T11:38:15.153Z,52.08
2018-04-25T11:40:44.253Z,52.56
2018-04-25T11:43:13.356Z,52.87
2018-04-25T11:45:42.450Z,53.06
2018-04-25T11:48:11.620Z,52.93
2018-04-25T11:50:40.261Z,53.28
2018-04-25T11:53:09.396Z,53.75
2018-04-25T11:55:37.751Z,53.53
2018-04-25T11:58:06.154Z,53.62
2018-04-25T12:00:35.218Z,53.97
2018-04-25T12:03:03.671Z,53.20
2018-04-25T12:05:32.845Z,52.97
2018-04-25T12:08:01.216Z,53.18
2018-04-25T12:10:29.764Z,52.63
2018-04-25T12:12:59.084Z,52.72
2018-04-25T12:15:27.436Z,52.74
2018-04-25T12:17:55.824Z,52.79
2018-04-25T12:20:24.223Z,52.69
2018-04-25T12:22:52.618Z,53.39
2018-04-25T12:25:21.081Z,53.04
2018-04-25T12:27:50.416Z,53.85
2018-04-25T12:30:18.769Z,54.24
2018-04-25T12:32:47.889Z,54.45
2018-04-25T12:35:16.976Z,54.05
2018-04-25T12:37:45.329Z,53.45
2018-04-25T12:40:13.698Z,53.27
2018-04-25T12:42:42.112Z,52.51
2018-04-25T12:45:10.463Z,52.09
2018-04-25T12:47:39.631Z,52.35
2018-04-25T12:50:09.048Z,51.72
2018-04-25T12:52:37.446Z,51.86
2018-04-25T12:55:05.839Z,51.57
2018-04-25T12:57:34.196Z,51.41
2018-04-25T13:00:02.627Z,51.81
2018-04-25T13:02:31.079Z,51.81
2018-04-25T13:05:00.481Z,52.17
2018-04-25T13:07:29.173Z,52.18
2018-04-25T13:09:58.460Z,51.98
2018-04-25T13:12:26.832Z,52.16
2018-04-25T13:14:56.455Z,52.15
2018-04-25T13:17:24.822Z,52.38
2018-04-25T13:19:54.040Z,52.48
2018-04-25T13:22:22.449Z,52.44
2018-04-25T13:24:51.488Z,52.58
2018-04-25T13:27:20.179Z,52.31
2018-04-25T13:29:48.910Z,52.24
2018-04-25T13:32:18.045Z,52.09
2018-04-25T13:34:47.288Z,51.84
2018-04-25T13:37:16.464Z,52.18
2018-04-25T13:39:44.849Z,52.22
2018-04-25T13:42:13.278Z,52.26
2018-04-25T13:44:41.696Z,52.30
2018-04-25T13:47:11.436Z,52.18
2018-04-25T13:49:41.432Z,52.34
2018-04-25T13:52:10.581Z,52.32
2018-04-25T13:54:42.891Z,51.85
2018-04-25T13:57:11.327Z,51.81
2018-04-25T13:59:40.191Z,51.50
2018-04-25T14:02:08.796Z,51.56
2018-04-25T14:04:37.157Z,51.62
2018-04-25T14:07:06.359Z,52.06
2018-04-25T14:09:36.374Z,51.49
2018-04-25T14:12:06.296Z,51.82
2018-04-25T14:14:35.402Z,51.64
2018-04-25T14:17:04.554Z,52.26
2018-04-25T14:19:34.528Z,51.98
2018-04-25T14:22:02.921Z,52.40
2018-04-25T14:24:31.503Z,53.31
2018-04-25T14:27:00.855Z,55.33
2018-04-25T14:29:32.193Z,55.71
2018-04-25T14:32:00.613Z,55.69
2018-04-25T14:34:29.038Z,55.97
2018-04-25T14:36:58.321Z,56.50
2018-04-25T14:39:27.727Z,57.30
2018-04-25T14:41:56.425Z,57.72
2018-04-25T14:44:24.829Z,58.85
2018-04-25T14:46:57.217Z,57.88
2018-04-25T14:49:25.650Z,57.68
2018-04-25T14:51:54.236Z,57.75
2018-04-25T14:54:23.104Z,57.47
2018-04-25T14:56:52.207Z,57.41
2018-04-25T14:59:21.795Z,57.29
2018-04-25T15:01:50.233Z,57.53
2018-04-25T15:04:19.433Z,57.41
2018-04-25T15:06:48.966Z,57.71
2018-04-25T15:09:17.379Z,57.72
2018-04-25T15:11:46.718Z,56.44
2018-04-25T15:14:15.267Z,54.81
2018-04-25T15:16:43.725Z,54.92
2018-04-25T15:19:12.219Z,54.57
2018-04-25T15:21:40.705Z,54.32
2018-04-25T15:24:10.441Z,54.03
2018-04-25T15:26:39.521Z,54.23
2018-04-25T15:29:09.524Z,54.63
2018-04-25T15:31:37.893Z,54.79
2018-04-25T15:34:07.206Z,55.19
2018-04-25T15:36:36.559Z,55.24
2018-04-25T15:39:05.955Z,55.16
2018-04-25T15:41:34.429Z,55.55
2018-04-25T15:44:02.835Z,55.55
2018-04-25T15:46:31.953Z,55.24
2018-04-25T15:49:00.399Z,54.98
2018-04-25T15:51:29.613Z,55.12
2018-04-25T15:53:58.043Z,54.77
2018-04-25T15:56:27.167Z,54.27
2018-04-25T15:58:56.550Z,53.50
2018-04-25T16:01:25.804Z,52.97
2018-04-25T16:03:54.627Z,53.34
2018-04-25T16:06:23.065Z,53.55
2018-04-25T16:08:52.365Z,53.11
2018-04-25T16:11:20.736Z,53.33
2018-04-25T16:13:50.084Z,53.70
2018-04-25T16:16:19.173Z,53.60
2018-04-25T16:18:48.576Z,54.43
2018-04-25T16:21:17.283Z,54.61
2018-04-25T16:23:45.616Z,54.44
2018-04-25T16:26:13.959Z,53.99
2018-04-25T16:28:43.096Z,54.24
2018-04-25T16:31:11.491Z,54.74
2018-04-25T16:33:39.848Z,54.67
2018-04-25T16:36:08.226Z,54.69
2018-04-25T16:38:37.266Z,54.08
2018-04-25T16:41:06.765Z,54.72
2018-04-25T16:43:35.248Z,55.00
2018-04-25T16:46:03.579Z,54.49
2018-04-25T16:48:32.778Z,54.48
2018-04-25T16:51:01.253Z,53.78
2018-04-25T16:53:30.513Z,54.02
2018-04-25T16:55:58.938Z,53.99
2018-04-25T16:58:28.239Z,53.83
2018-04-25T17:00:57.692Z,53.41
2018-04-25T17:03:26.063Z,53.05
2018-04-25T17:05:54.401Z,52.34
2018-04-25T17:08:23.566Z,52.68
2018-04-25T17:10:52.718Z,52.81
2018-04-25T17:13:21.095Z,53.14
2018-04-25T17:15:50.069Z,53.45
2018-04-25T17:18:18.460Z,53.26
2018-04-25T17:20:46.829Z,53.47
2018-04-25T17:23:15.441Z,53.61
2018-04-25T17:25:47.379Z,53.63
2018-04-25T17:28:16.640Z,53.64
2018-04-25T17:30:47.321Z,54.14
2018-04-25T17:33:15.679Z,54.11
2018-04-25T17:35:44.283Z,54.29
2018-04-25T17:38:12.763Z,54.18
2018-04-25T17:40:41.118Z,54.24
2018-04-25T17:43:09.485Z,54.18
2018-04-25T17:45:39.173Z,54.58
2018-04-25T17:48:08.438Z,54.80
2018-04-25T17:50:38.068Z,54.83
2018-04-25T17:53:07.222Z,55.17
2018-04-25T17:55:36.231Z,54.95
2018-04-25T17:58:04.679Z,54.79
2018-04-25T18:00:33.336Z,55.02
2018-04-25T18:03:01.737Z,55.05
2018-04-25T18:05:31.668Z,54.72
2018-04-25T18:08:00.114Z,54.80
2018-04-25T18:10:29.171Z,55.09
2018-04-25T18:12:58.805Z,55.08
2018-04-25T18:15:27.308Z,55.23
2018-04-25T18:17:57.568Z,55.62
2018-04-25T18:20:26.079Z,55.70
2018-04-25T18:22:54.678Z,59.16
2018-04-25T18:25:23.127Z,61.50
2018-04-25T18:27:51.753Z,62.04
2018-04-25T18:30:21.935Z,60.69
2018-04-25T18:32:50.646Z,61.13
2018-04-25T18:35:19.372Z,61.71
2018-04-25T18:37:50.141Z,61.08
2018-04-25T18:40:20.752Z,61.47
2018-04-25T18:42:49.343Z,61.75
2018-04-25T18:45:18.673Z,62.02
2018-04-25T18:47:48.595Z,61.99
2018-04-25T18:50:18.661Z,62.35
2018-04-25T18:52:48.568Z,62.72
2018-04-25T18:55:17.723Z,62.42
2018-04-25T18:57:48.106Z,62.31
2018-04-25T19:00:17.646Z,62.26
2018-04-25T19:02:46.250Z,62.68
2018-04-25T19:05:15.106Z,62.37
2018-04-25T19:07:43.670Z,62.27
2018-04-25T19:10:12.635Z,62.84
2018-04-25T19:12:41.898Z,63.20
2018-04-25T19:15:10.394Z,63.48
2018-04-25T19:17:38.774Z,63.94
2018-04-25T19:20:09.091Z,63.37
2018-04-25T19:22:41.191Z,63.39
2018-04-25T19:25:10.096Z,63.25
2018-04-25T19:27:38.536Z,63.37
2018-04-25T19:30:08.671Z,63.26
2018-04-25T19:32:37.073Z,63.48
2018-04-25T19:35:05.455Z,62.98
2018-04-25T19:37:35.730Z,63.96
2018-04-25T19:40:04.115Z,63.10
2018-04-25T19:42:32.626Z,62.81
2018-04-25T19:45:03.213Z,62.92
2018-04-25T19:47:31.641Z,63.05
2018-04-25T19:50:00.929Z,62.68
2018-04-25T19:52:30.902Z,62.56
2018-04-25T19:54:59.299Z,62.63
2018-04-25T19:57:27.721Z,62.34
2018-04-25T19:59:56.361Z,62.24
2018-04-25T20:02:25.554Z,62.42
2018-04-25T20:04:53.970Z,62.33
2018-04-25T20:07:23.212Z,62.33
2018-04-25T20:09:52.066Z,62.19
2018-04-25T20:12:21.359Z,61.89
2018-04-25T20:14:50.346Z,62.00
2018-04-25T20:17:18.742Z,61.57
2018-04-25T20:19:47.899Z,61.73
2018-04-25T20:22:16.294Z,61.71
2018-04-25T20:24:45.501Z,62.00
2018-04-25T20:27:14.707Z,61.62
2018-04-25T20:29:43.916Z,61.53
2018-04-25T20:32:13.072Z,61.35
2018-04-25T20:34:43.180Z,61.32
2018-04-25T20:37:12.579Z,61.79
2018-04-25T20:39:40.955Z,62.73
2018-04-25T20:42:09.420Z,63.49
2018-04-25T20:44:38.598Z,64.05
2018-04-25T20:47:09.401Z,64.00
2018-04-25T20:49:37.990Z,64.43
2018-04-25T20:52:06.667Z,65.01
2018-04-25T20:54:35.152Z,64.46
2018-04-25T20:57:03.536Z,64.63
2018-04-25T20:59:31.914Z,64.34
2018-04-25T21:02:00.408Z,64.52
2018-04-25T21:04:29.526Z,64.74
2018-04-25T21:06:59.440Z,65.14
2018-04-25T21:09:27.890Z,65.44
2018-04-25T21:11:56.296Z,64.99
2018-04-25T21:14:24.741Z,65.97
2018-04-25T21:16:53.222Z,65.34
2018-04-25T21:19:22.345Z,65.88
2018-04-25T21:21:53.272Z,66.47
2018-04-25T21:24:22.382Z,66.12
2018-04-25T21:26:50.719Z,66.32
2018-04-25T21:29:19.081Z,66.46
2018-04-25T21:31:47.516Z,65.94
2018-04-25T21:48:08.979Z,66.87
2018-04-25T21:50:37.377Z,67.10
2018-04-25T21:53:08.684Z,66.86
2018-04-25T21:55:37.698Z,67.10
2018-04-25T21:58:06.125Z,67.24
2018-04-25T22:00:35.268Z,67.16
2018-04-25T22:03:05.202Z,66.86
2018-04-25T22:05:33.611Z,66.68
2018-04-25T22:08:02.722Z,66.64
2018-04-25T22:10:31.116Z,66.69
2018-04-25T22:13:01.204Z,66.63
2018-04-25T22:15:30.288Z,66.86
2018-04-25T22:17:59.412Z,67.14
2018-04-25T22:20:28.064Z,66.33
2018-04-25T22:22:56.400Z,66.57
2018-04-25T22:25:24.815Z,66.68
2018-04-25T22:27:53.178Z,66.86
2018-04-25T22:30:23.348Z,66.64
2018-04-25T22:32:51.730Z,66.79
2018-04-25T22:35:20.686Z,67.08
2018-04-25T22:37:49.048Z,66.62
2018-04-25T22:40:17.425Z,66.59
2018-04-25T22:42:46.513Z,66.82
2018-04-25T22:45:15.026Z,66.64
2018-04-25T22:47:44.091Z,66.67
2018-04-25T22:50:13.201Z,66.68
2018-04-25T22:52:41.927Z,66.59
2018-04-25T22:55:11.061Z,66.75
2018-04-25T22:57:39.438Z,66.50
2018-04-25T23:00:07.761Z,66.44
2018-04-25T23:02:36.409Z,66.35
2018-04-25T23:05:04.779Z,66.12
2018-04-25T23:07:34.028Z,66.42
2018-04-25T23:10:02.401Z,66.40
2018-04-25T23:12:31.400Z,66.43
2018-04-25T23:15:00.525Z,67.16
2018-04-25T23:17:28.929Z,67.02
2018-04-25T23:19:57.278Z,67.51
2018-04-25T23:22:25.649Z,67.20
2018-04-25T23:24:55.923Z,67.42
2018-04-25T23:27:24.398Z,67.63
2018-04-25T23:29:52.768Z,67.91
2018-04-25T23:32:21.926Z,68.01
2018-04-25T23:34:51.059Z,67.79
2018-04-25T23:37:19.486Z,67.82
2018-04-25T23:39:48.631Z,67.53
2018-04-25T23:42:17.029Z,67.43
2018-04-25T23:44:45.421Z,67.67
2018-04-25T23:47:13.783Z,67.88
2018-04-25T23:49:42.123Z,67.73
2018-04-25T23:52:11.206Z,67.28
2018-04-25T23:54:40.386Z,67.73
2018-04-25T23:57:09.518Z,67.61
2018-04-25T23:59:38.239Z,67.14
